Redford, New York
Current Conditions -  °F | °C
As of 8:53 PM on Wednesday 26 Nov 2014 (Local Time) from KPBG Reporting Station
Light Snow Light Snow  
Wind Chill: 19°   Ceiling: 1600
Heat Index: 29°   Visibility: 1.5mi
Dew Point: 27°   Wind: 12mph
Humidity: 92%   Direction: 350°N
Pressure: 30.04"   Gusts: NA
Location:  44.61°N, 73.8°W
Report Text: KPBG 270153Z AUTO 35010KT 1 1/2SM -SN BR FEW009 OVC016 M02/M03 A3004 RMK AO2 SLP177 P0001 T10171028
Loading
Personal Weather Stations






























Interactive Weather Map New forecast layout! Learn more

10-Day Weather Forecast

Advertisements
Track Severe Weather on mobile